Time;durP1;ratioP1;P1;durP2;ratioP2;P2;SDS_P1;SDS_P2;PMS_P1;PMS_P2;Temp;Humidity;BMP_temperature;BMP_pressure;BME280_temperature;BME280_humidity;BME280_pressure;Samples;Min_cycle;Max_cycle;Signal;HPM_P1;HPM_P2
2023/07/08 00:00:23;;;;;;;6.00;4.25;;;17.70;99.90;;;;;;5027871;28;20049;-71
2023/07/08 00:02:50;;;;;;;5.88;4.75;;;17.60;99.90;;;;;;5043375;28;20087;-71
2023/07/08 00:05:19;;;;;;;6.03;4.93;;;17.60;99.90;;;;;;5051051;28;20052;-71
2023/07/08 00:07:46;;;;;;;5.93;4.80;;;17.60;99.90;;;;;;5047298;28;20119;-71
2023/07/08 00:10:25;;;;;;;6.55;4.90;;;17.60;99.90;;;;;;5045513;28;20064;-71
2023/07/08 00:12:53;;;;;;;8.00;4.82;;;17.50;99.90;;;;;;5049325;28;20692;-71
2023/07/08 00:15:24;;;;;;;6.07;4.88;;;17.50;99.90;;;;;;5055206;28;20048;-71
2023/07/08 00:17:50;;;;;;;6.95;5.03;;;17.50;99.90;;;;;;5051933;28;20136;-71
2023/07/08 00:20:28;;;;;;;9.13;4.85;;;17.40;99.90;;;;;;5047559;28;20059;-71
2023/07/08 00:22:55;;;;;;;7.82;5.07;;;17.40;99.90;;;;;;5043169;28;20055;-71
2023/07/08 00:25:21;;;;;;;6.78;4.70;;;17.40;99.90;;;;;;5025524;28;20048;-71
2023/07/08 00:27:47;;;;;;;7.13;4.85;;;17.30;99.90;;;;;;5045221;28;20589;-71
2023/07/08 00:30:21;;;;;;;7.25;5.03;;;17.30;99.90;;;;;;5042821;28;20140;-70
2023/07/08 00:32:53;;;;;;;6.22;4.72;;;17.30;99.90;;;;;;5048786;28;20123;-71
2023/07/08 00:35:23;;;;;;;6.63;4.47;;;17.30;99.90;;;;;;5040996;28;21711;-72
2023/07/08 00:37:52;;;;;;;7.53;5.18;;;17.20;99.90;;;;;;5054629;28;20056;-71
2023/07/08 00:40:21;;;;;;;6.70;4.63;;;17.30;99.90;;;;;;5058284;28;20052;-71
2023/07/08 00:42:47;;;;;;;8.70;5.03;;;17.30;99.90;;;;;;5055660;28;20047;-71
2023/07/08 00:45:22;;;;;;;7.45;5.07;;;17.20;99.90;;;;;;5052504;28;20079;-71
2023/07/08 00:47:50;;;;;;;6.32;5.15;;;17.20;99.90;;;;;;5047428;28;20170;-71
2023/07/08 00:50:15;;;;;;;7.22;4.97;;;17.20;99.90;;;;;;5055957;28;20572;-71
2023/07/08 00:52:42;;;;;;;7.75;5.13;;;17.20;99.90;;;;;;5055279;28;20072;-71
2023/07/08 00:55:09;;;;;;;6.70;4.88;;;17.20;99.90;;;;;;5050251;28;20856;-71
2023/07/08 00:57:38;;;;;;;7.25;5.05;;;17.20;99.90;;;;;;5052566;28;20060;-72
2023/07/08 01:00:08;;;;;;;7.30;5.38;;;17.20;99.90;;;;;;5049690;28;20060;-71
2023/07/08 01:02:45;;;;;;;8.68;5.50;;;17.20;99.90;;;;;;5036012;28;20044;-71
2023/07/08 01:05:19;;;;;;;6.72;4.95;;;17.20;99.90;;;;;;5054663;28;20055;-71
2023/07/08 01:07:51;;;;;;;8.07;5.18;;;17.20;99.90;;;;;;5042457;28;20549;-71
2023/07/08 01:10:25;;;;;;;9.68;5.47;;;17.20;99.90;;;;;;5042004;28;20056;-71
2023/07/08 01:12:57;;;;;;;7.07;5.18;;;17.20;99.90;;;;;;5044425;28;20041;-71
2023/07/08 01:15:26;;;;;;;8.90;5.50;;;17.10;99.90;;;;;;5049586;28;20162;-71
2023/07/08 01:17:53;;;;;;;8.38;5.75;;;17.10;99.90;;;;;;5047169;28;20052;-71
2023/07/08 01:20:19;;;;;;;8.43;4.95;;;17.10;99.90;;;;;;5055744;28;20495;-71
2023/07/08 01:22:45;;;;;;;6.95;5.35;;;17.00;99.90;;;;;;5053691;28;20058;-71
2023/07/08 01:25:13;;;;;;;8.15;5.35;;;17.00;99.90;;;;;;5041882;28;20406;-71
2023/07/08 01:27:42;;;;;;;8.27;5.30;;;17.00;99.90;;;;;;5054467;28;20051;-71
2023/07/08 01:30:11;;;;;;;7.90;5.55;;;17.00;99.90;;;;;;5040467;28;20561;-70
2023/07/08 01:32:43;;;;;;;6.63;5.40;;;17.00;99.90;;;;;;5038237;28;20053;-71
2023/07/08 01:35:11;;;;;;;7.30;5.60;;;16.90;99.90;;;;;;5054843;28;20581;-71
2023/07/08 01:37:44;;;;;;;8.27;5.80;;;16.90;99.90;;;;;;5053305;28;20065;-71
2023/07/08 01:40:34;;;;;;;9.50;5.57;;;16.90;99.90;;;;;;5044130;28;20048;-71
2023/07/08 01:43:01;;;;;;;8.23;5.47;;;16.90;99.90;;;;;;5044484;28;20044;-71
2023/07/08 01:45:30;;;;;;;10.30;5.97;;;16.90;99.90;;;;;;5053946;28;20140;-71
2023/07/08 01:48:15;;;;;;;7.93;5.82;;;16.80;99.90;;;;;;5050099;28;20074;-71
2023/07/08 01:51:05;;;;;;;6.85;5.88;;;16.80;99.90;;;;;;5039911;28;20040;-71
2023/07/08 01:53:35;;;;;;;;;;;16.80;99.90;;;;;;5040538;28;20079;-71
2023/07/08 01:56:02;;;;;;;6.97;5.40;;;16.70;99.90;;;;;;5051763;28;19928;-71
2023/07/08 01:58:28;;;;;;;8.82;6.05;;;16.70;99.90;;;;;;5053738;28;20829;-72
2023/07/08 02:00:54;;;;;;;7.70;5.63;;;16.70;99.90;;;;;;5052400;28;20060;-71
2023/07/08 02:03:21;;;;;;;9.25;5.88;;;16.70;99.90;;;;;;5050987;28;20048;-71
2023/07/08 02:05:47;;;;;;;7.25;6.05;;;16.70;99.90;;;;;;5052814;28;20040;-71
2023/07/08 02:08:12;;;;;;;7.53;5.40;;;16.60;99.90;;;;;;5051888;28;20071;-71
2023/07/08 02:10:39;;;;;;;8.35;6.22;;;16.50;99.90;;;;;;5047769;28;20052;-71
2023/07/08 02:13:05;;;;;;;6.95;5.63;;;16.60;99.90;;;;;;5048472;28;20049;-71
2023/07/08 02:15:32;;;;;;;8.27;5.60;;;16.50;99.90;;;;;;5033194;28;20078;-71
2023/07/08 02:17:58;;;;;;;9.18;6.32;;;16.50;99.90;;;;;;5051356;28;20228;-71
2023/07/08 02:20:24;;;;;;;7.40;5.95;;;16.50;99.90;;;;;;5051059;28;20472;-71
2023/07/08 02:22:49;;;;;;;8.13;5.93;;;16.40;99.90;;;;;;5051642;28;20364;-71
2023/07/08 02:25:15;;;;;;;9.45;6.70;;;16.40;99.90;;;;;;5038748;28;20175;-71
2023/07/08 02:27:42;;;;;;;8.60;6.00;;;16.40;99.90;;;;;;5051884;28;20114;-71
2023/07/08 02:30:08;;;;;;;7.20;6.15;;;16.40;99.90;;;;;;5038714;28;20051;-71
2023/07/08 02:32:35;;;;;;;9.23;6.18;;;16.40;99.90;;;;;;5073622;28;20048;-71
2023/07/08 02:35:05;;;;;;;7.70;6.63;;;16.40;99.90;;;;;;5034029;28;20033;-71
2023/07/08 02:37:32;;;;;;;9.13;6.10;;;16.30;99.90;;;;;;5050502;28;20574;-71
2023/07/08 02:39:57;;;;;;;9.05;6.63;;;16.30;99.90;;;;;;5048692;28;20278;-71
2023/07/08 02:42:23;;;;;;;9.70;6.75;;;16.30;99.90;;;;;;5053050;28;20497;-71
2023/07/08 02:44:49;;;;;;;8.45;6.18;;;16.30;99.90;;;;;;5041354;28;20037;-71
2023/07/08 02:47:15;;;;;;;7.45;5.65;;;16.20;99.90;;;;;;5037090;28;20052;-71
2023/07/08 02:49:41;;;;;;;7.78;6.97;;;16.20;99.90;;;;;;5037619;28;20052;-71
2023/07/08 02:52:06;;;;;;;9.45;6.60;;;16.10;99.90;;;;;;5057311;28;20090;-72
2023/07/08 02:54:32;;;;;;;9.00;6.65;;;16.10;99.90;;;;;;5050980;28;20044;-71
2023/07/08 02:56:58;;;;;;;7.72;6.00;;;16.00;99.90;;;;;;5051304;28;20185;-71
2023/07/08 02:59:24;;;;;;;7.97;6.88;;;16.00;99.90;;;;;;5037188;28;20052;-71
2023/07/08 03:01:50;;;;;;;11.00;6.88;;;16.00;99.90;;;;;;5054426;28;20036;-71
2023/07/08 03:04:16;;;;;;;8.55;6.75;;;15.90;99.90;;;;;;5047464;28;20459;-71
2023/07/08 03:06:45;;;;;;;7.97;6.38;;;15.90;99.90;;;;;;5052920;28;20095;-71
2023/07/08 03:09:12;;;;;;;8.43;6.88;;;15.90;99.90;;;;;;5032852;28;20041;-71
2023/07/08 03:11:41;;;;;;;8.55;6.82;;;15.80;99.90;;;;;;5035003;28;20055;-71
2023/07/08 03:14:07;;;;;;;9.38;7.13;;;15.70;99.90;;;;;;5052219;28;20491;-71
2023/07/08 03:16:33;;;;;;;7.95;7.03;;;15.70;99.90;;;;;;5048697;28;20487;-71
2023/07/08 03:18:58;;;;;;;10.00;7.10;;;15.70;99.90;;;;;;5036278;28;20082;-71
2023/07/08 03:21:25;;;;;;;8.25;6.50;;;15.60;99.90;;;;;;5034773;28;20043;-71
2023/07/08 03:23:51;;;;;;;8.38;6.70;;;15.60;99.90;;;;;;5054071;28;20036;-71
2023/07/08 03:26:23;;;;;;;8.52;7.30;;;15.60;99.90;;;;;;5052741;28;20526;-71
2023/07/08 03:28:50;;;;;;;8.63;6.88;;;15.60;99.90;;;;;;5054903;28;20044;-71
2023/07/08 03:31:16;;;;;;;7.40;6.65;;;15.60;99.90;;;;;;5051348;28;20139;-71
2023/07/08 03:33:42;;;;;;;9.73;7.18;;;15.60;99.90;;;;;;5060175;28;20052;-71
2023/07/08 03:36:22;;;;;;;8.60;7.10;;;15.60;99.90;;;;;;5064155;28;20052;-71
2023/07/08 03:38:52;;;;;;;9.25;7.45;;;15.60;99.90;;;;;;5050785;28;20055;-71
2023/07/08 03:41:19;;;;;;;9.48;7.45;;;15.60;99.90;;;;;;5049990;28;20102;-70
2023/07/08 03:43:44;;;;;;;11.43;7.32;;;15.60;99.90;;;;;;5052137;28;20151;-71
2023/07/08 03:46:11;;;;;;;8.02;6.57;;;15.60;99.90;;;;;;5038849;28;20139;-71
2023/07/08 03:48:38;;;;;;;8.70;7.22;;;15.60;99.90;;;;;;5035389;28;20037;-71
2023/07/08 03:51:04;;;;;;;7.97;6.38;;;15.60;99.90;;;;;;5064846;28;20067;-71
2023/07/08 03:53:30;;;;;;;10.27;7.20;;;15.70;99.90;;;;;;5046965;28;20048;-71
2023/07/08 03:55:56;;;;;;;8.48;7.28;;;15.70;99.90;;;;;;5035512;28;20109;-71
2023/07/08 03:58:22;;;;;;;8.45;7.22;;;15.70;99.90;;;;;;5030015;28;20072;-71
2023/07/08 04:00:48;;;;;;;8.68;6.78;;;15.70;99.90;;;;;;5046538;28;20045;-71
2023/07/08 04:03:13;;;;;;;8.45;7.55;;;15.70;99.90;;;;;;5050667;28;20452;-71
2023/07/08 04:05:39;;;;;;;7.38;6.55;;;15.70;99.90;;;;;;5034592;28;20560;-70
2023/07/08 04:08:05;;;;;;;9.70;7.22;;;15.80;99.90;;;;;;5050717;28;20072;-71
2023/07/08 04:10:31;;;;;;;8.45;7.43;;;15.80;99.90;;;;;;5047881;28;20167;-71
2023/07/08 04:12:57;;;;;;;8.18;7.18;;;15.80;99.90;;;;;;5053990;28;20044;-71
2023/07/08 04:15:25;;;;;;;8.10;6.88;;;15.90;99.90;;;;;;5049343;28;20057;-71
2023/07/08 04:17:51;;;;;;;9.73;7.28;;;15.90;99.90;;;;;;5037999;28;20052;-71
2023/07/08 04:20:18;;;;;;;8.45;7.32;;;15.90;99.90;;;;;;5041496;28;20514;-71
2023/07/08 04:22:44;;;;;;;9.18;7.20;;;15.90;99.90;;;;;;5055801;28;20552;-72
2023/07/08 04:25:12;;;;;;;8.30;7.40;;;16.00;99.90;;;;;;5041947;28;20041;-71
2023/07/08 04:27:38;;;;;;;8.00;7.20;;;16.00;99.90;;;;;;5059306;28;20067;-71
2023/07/08 04:30:05;;;;;;;8.60;7.28;;;16.10;99.90;;;;;;5039083;28;20039;-71
2023/07/08 04:32:31;;;;;;;8.55;6.72;;;16.10;99.90;;;;;;5032842;28;20041;-71
2023/07/08 04:34:57;;;;;;;9.73;7.25;;;16.10;99.90;;;;;;5053111;28;20296;-71
2023/07/08 04:37:23;;;;;;;8.32;6.90;;;16.10;99.90;;;;;;5053906;28;20517;-71
2023/07/08 04:39:48;;;;;;;7.85;6.35;;;16.20;99.90;;;;;;5035633;28;20079;-71
2023/07/08 04:42:17;;;;;;;9.93;7.47;;;16.20;99.90;;;;;;5054395;28;20040;-71
2023/07/08 04:44:44;;;;;;;8.50;6.90;;;16.30;99.90;;;;;;5042913;28;20041;-71
2023/07/08 04:47:12;;;;;;;8.60;6.53;;;16.30;99.90;;;;;;5056683;28;20096;-71
2023/07/08 04:49:38;;;;;;;9.40;6.80;;;16.40;99.90;;;;;;5058363;28;20048;-71
2023/07/08 04:52:04;;;;;;;7.40;6.63;;;16.40;99.90;;;;;;5055441;28;20107;-71
2023/07/08 04:54:30;;;;;;;6.95;6.05;;;16.50;99.90;;;;;;5056180;28;20044;-71
2023/07/08 04:56:58;;;;;;;9.10;6.68;;;16.50;99.90;;;;;;5040777;28;20074;-71
2023/07/08 04:59:25;;;;;;;8.40;6.45;;;16.60;99.90;;;;;;5059137;28;20534;-71
2023/07/08 05:01:52;;;;;;;8.50;6.60;;;16.60;99.90;;;;;;5056061;28;20086;-71
2023/07/08 05:04:20;;;;;;;9.52;6.53;;;16.70;99.90;;;;;;5055278;28;20052;-71
2023/07/08 05:06:47;;;;;;;8.57;6.30;;;16.70;99.90;;;;;;5055687;28;20055;-71
2023/07/08 05:09:13;;;;;;;10.15;6.43;;;16.80;99.90;;;;;;5058885;28;20042;-71
2023/07/08 05:11:39;;;;;;;7.70;6.82;;;16.90;99.90;;;;;;5052974;28;20048;-71
2023/07/08 05:14:05;;;;;;;6.63;5.82;;;16.90;99.90;;;;;;5041903;28;20655;-71
2023/07/08 05:16:34;;;;;;;7.88;6.50;;;16.90;99.90;;;;;;5053540;28;20060;-71
2023/07/08 05:19:00;;;;;;;8.98;6.85;;;17.00;99.90;;;;;;5053327;28;20041;-71
2023/07/08 05:21:29;;;;;;;7.03;5.53;;;17.00;99.90;;;;;;5031985;28;20036;-71
2023/07/08 05:23:55;;;;;;;9.05;6.25;;;17.10;99.90;;;;;;5054636;28;20043;-71
2023/07/08 05:26:21;;;;;;;6.80;5.15;;;17.20;99.90;;;;;;5040891;28;20636;-71
2023/07/08 05:28:47;;;;;;;7.28;5.55;;;17.30;99.90;;;;;;5038909;28;20127;-71
2023/07/08 05:31:13;;;;;;;8.23;5.90;;;17.40;99.90;;;;;;5039460;28;20162;-71
2023/07/08 05:33:38;;;;;;;9.27;6.05;;;17.40;99.90;;;;;;5055258;28;20044;-71
2023/07/08 05:36:04;;;;;;;7.60;5.43;;;17.50;99.90;;;;;;5042602;28;20050;-71
2023/07/08 05:38:30;;;;;;;9.48;5.80;;;17.60;99.90;;;;;;5067261;28;20036;-71
2023/07/08 05:40:57;;;;;;;6.85;5.45;;;17.70;99.90;;;;;;5038568;28;20175;-71
2023/07/08 05:43:24;;;;;;;8.02;5.70;;;17.70;99.90;;;;;;5054229;28;20119;-71
2023/07/08 05:45:50;;;;;;;6.97;5.55;;;17.80;99.90;;;;;;5037792;28;20052;-71
2023/07/08 05:48:16;;;;;;;8.10;5.75;;;17.90;99.90;;;;;;5049674;28;20103;-71
2023/07/08 05:50:42;;;;;;;9.70;5.60;;;18.00;99.90;;;;;;5037553;28;20098;-71
2023/07/08 05:53:10;;;;;;;8.75;6.13;;;18.00;99.90;;;;;;5053684;28;20446;-71
2023/07/08 05:55:36;;;;;;;6.10;5.22;;;18.10;99.90;;;;;;5051663;28;20053;-71
2023/07/08 05:58:02;;;;;;;8.00;5.38;;;18.10;99.90;;;;;;5033598;28;20044;-71
2023/07/08 06:00:28;;;;;;;7.47;6.07;;;18.20;99.90;;;;;;5036299;28;20633;-71
2023/07/08 06:02:54;;;;;;;7.30;5.63;;;18.20;99.90;;;;;;5037990;28;20036;-71
2023/07/08 06:05:20;;;;;;;9.05;5.72;;;18.30;99.90;;;;;;5050676;28;20048;-71
2023/07/08 06:07:46;;;;;;;6.43;5.80;;;18.40;99.90;;;;;;5040580;28;20153;-71
2023/07/08 06:10:11;;;;;;;8.95;5.68;;;18.40;99.90;;;;;;5055985;28;20044;-71
2023/07/08 06:12:37;;;;;;;6.43;5.10;;;18.50;99.90;;;;;;5048723;28;20037;-71
2023/07/08 06:15:12;;;;;;;8.98;5.70;;;18.60;99.90;;;;;;5034249;28;20494;-71
2023/07/08 06:17:40;;;;;;;7.30;5.30;;;18.60;99.90;;;;;;5047921;28;20077;-71
2023/07/08 06:20:07;;;;;;;8.27;5.22;;;18.70;99.90;;;;;;5048283;28;20071;-71
2023/07/08 06:22:33;;;;;;;6.80;5.82;;;18.70;99.90;;;;;;5032211;28;20045;-71
2023/07/08 06:24:59;;;;;;;7.50;6.00;;;18.80;99.90;;;;;;5051997;28;20040;-71
2023/07/08 06:27:24;;;;;;;7.78;5.80;;;18.90;99.90;;;;;;5047775;28;20045;-71
2023/07/08 06:29:50;;;;;;;6.38;5.20;;;19.00;99.90;;;;;;5031702;28;20131;-71
2023/07/08 06:32:16;;;;;;;6.88;5.22;;;19.00;99.90;;;;;;5028904;28;20113;-71
2023/07/08 06:34:42;;;;;;;7.03;5.22;;;19.10;99.90;;;;;;5049661;28;20092;-71
2023/07/08 06:37:08;;;;;;;7.07;5.22;;;19.20;99.90;;;;;;5034934;28;20157;-71
2023/07/08 06:39:33;;;;;;;9.60;5.05;;;19.30;99.90;;;;;;5036246;28;20048;-71
2023/07/08 06:41:59;;;;;;;8.10;5.50;;;19.30;99.90;;;;;;5051663;28;20097;-71
2023/07/08 06:44:26;;;;;;;6.40;5.50;;;19.40;99.90;;;;;;5047109;28;20419;-71
2023/07/08 06:46:52;;;;;;;7.57;4.95;;;19.50;99.90;;;;;;5047049;28;20123;-71
2023/07/08 06:49:18;;;;;;;6.18;5.20;;;19.60;99.90;;;;;;5050356;28;20048;-71
2023/07/08 06:51:45;;;;;;;5.72;5.05;;;19.70;99.90;;;;;;5049623;28;20040;-71
2023/07/08 06:54:11;;;;;;;7.15;5.22;;;19.80;99.90;;;;;;5037496;28;20052;-71
2023/07/08 06:56:41;;;;;;;5.78;4.93;;;19.90;99.90;;;;;;5069750;28;20070;-71
2023/07/08 06:59:08;;;;;;;6.28;5.00;;;20.00;99.90;;;;;;5052303;28;20829;-71
2023/07/08 07:01:34;;;;;;;8.10;5.15;;;20.10;99.90;;;;;;5041325;28;20047;-71
2023/07/08 07:04:01;;;;;;;7.35;5.15;;;20.20;99.90;;;;;;5053331;28;20059;-71
2023/07/08 07:06:26;;;;;;;7.85;5.05;;;20.30;99.90;;;;;;5057838;28;20079;-71
2023/07/08 07:08:52;;;;;;;5.32;4.40;;;20.40;99.90;;;;;;5055523;28;20149;-71
2023/07/08 07:11:19;;;;;;;5.93;4.82;;;20.50;99.90;;;;;;5041072;28;20048;-71
2023/07/08 07:13:45;;;;;;;6.20;4.40;;;20.60;99.90;;;;;;5054225;28;20079;-71
2023/07/08 07:16:11;;;;;;;7.40;4.53;;;20.70;99.90;;;;;;5057890;28;20086;-71
2023/07/08 07:18:37;;;;;;;7.68;4.53;;;20.80;99.90;;;;;;5054077;28;20577;-71
2023/07/08 07:21:03;;;;;;;6.88;4.57;;;20.90;99.90;;;;;;5057630;28;20059;-71
2023/07/08 07:23:29;;;;;;;5.85;4.32;;;21.10;99.90;;;;;;5041113;28;20032;-71
2023/07/08 07:25:54;;;;;;;7.55;4.70;;;21.20;99.90;;;;;;5040461;28;20079;-71
2023/07/08 07:28:20;;;;;;;5.60;4.70;;;21.30;99.90;;;;;;5053009;28;20514;-71
2023/07/08 07:30:47;;;;;;;6.60;4.43;;;21.40;99.90;;;;;;5038408;28;20048;-71
2023/07/08 07:33:13;;;;;;;5.65;3.67;;;21.50;99.90;;;;;;5053028;28;20368;-71
2023/07/08 07:35:45;;;;;;;6.95;4.55;;;21.70;99.90;;;;;;5056296;28;20213;-71
2023/07/08 07:38:12;;;;;;;5.13;4.10;;;21.80;99.90;;;;;;5055748;28;20162;-71
2023/07/08 07:40:39;;;;;;;6.95;4.32;;;22.00;99.90;;;;;;5056307;28;20131;-71
2023/07/08 07:43:05;;;;;;;5.00;4.32;;;22.10;99.90;;;;;;5038415;28;20044;-72
2023/07/08 07:45:31;;;;;;;7.50;4.35;;;22.20;99.90;;;;;;5055031;28;20075;-71
2023/07/08 07:47:56;;;;;;;8.85;4.50;;;22.30;99.90;;;;;;5052116;28;20418;-72
2023/07/08 07:50:22;;;;;;;5.88;4.03;;;22.50;99.90;;;;;;5055150;28;20067;-71
2023/07/08 07:52:48;;;;;;;8.80;4.40;;;22.70;99.90;;;;;;5054404;28;20121;-71
2023/07/08 07:55:14;;;;;;;6.90;4.20;;;22.80;99.90;;;;;;5040863;28;20081;-71
2023/07/08 07:57:41;;;;;;;5.55;4.50;;;22.90;99.90;;;;;;5038065;28;20040;-71
2023/07/08 08:00:09;;;;;;;7.90;4.30;;;23.00;99.00;;;;;;5042166;28;20049;-71
2023/07/08 08:02:35;;;;;;;6.30;4.35;;;23.00;97.70;;;;;;5037005;28;20103;-71
2023/07/08 08:05:01;;;;;;;6.53;4.20;;;23.10;98.60;;;;;;5038687;28;20044;-71
2023/07/08 08:07:27;;;;;;;7.82;4.03;;;23.20;97.50;;;;;;5040384;28;20940;-71
2023/07/08 08:09:52;;;;;;;5.72;4.35;;;23.30;96.90;;;;;;5054392;28;20113;-72
2023/07/08 08:12:18;;;;;;;6.45;4.15;;;23.40;98.20;;;;;;5056996;28;20048;-71
2023/07/08 08:14:44;;;;;;;7.10;4.00;;;23.50;98.40;;;;;;5036700;28;20120;-71
2023/07/08 08:17:10;;;;;;;5.70;4.35;;;23.60;98.00;;;;;;5056066;28;20501;-72
2023/07/08 08:19:35;;;;;;;6.05;4.55;;;23.80;96.60;;;;;;5054339;28;20053;-71
2023/07/08 08:22:01;;;;;;;7.10;4.32;;;23.90;96.30;;;;;;5056706;28;20037;-71
2023/07/08 08:24:27;;;;;;;5.88;4.40;;;23.90;98.10;;;;;;5053360;28;20045;-71
2023/07/08 08:26:53;;;;;;;5.70;4.28;;;24.00;96.30;;;;;;5058915;28;20053;-71
2023/07/08 08:29:19;;;;;;;6.32;4.18;;;24.00;96.00;;;;;;5051157;28;20105;-71
2023/07/08 08:31:44;;;;;;;6.63;4.13;;;24.20;95.40;;;;;;5059896;28;20043;-70
2023/07/08 08:34:10;;;;;;;4.97;3.97;;;24.20;95.00;;;;;;5058471;28;20060;-73
2023/07/08 08:36:36;;;;;;;7.57;4.40;;;24.20;95.30;;;;;;5037602;28;20044;-71
2023/07/08 08:39:02;;;;;;;6.85;4.15;;;24.30;95.50;;;;;;5032295;28;20372;-71
2023/07/08 08:41:39;;;;;;;5.20;3.92;;;24.40;95.70;;;;;;5042547;28;20309;-71
2023/07/08 08:44:08;;;;;;;4.88;3.75;;;24.50;95.20;;;;;;5038053;28;20530;-71
2023/07/08 08:46:40;;;;;;;7.28;3.83;;;24.70;95.50;;;;;;5059633;28;20426;-71
2023/07/08 08:49:21;;;;;;;6.10;4.13;;;24.80;94.80;;;;;;5044738;28;20036;-71
2023/07/08 08:51:51;;;;;;;7.40;4.32;;;25.00;93.70;;;;;;5044389;28;20067;-71
2023/07/08 08:54:17;;;;;;;5.40;3.80;;;25.10;93.20;;;;;;5055294;28;20044;-71
2023/07/08 08:57:20;;;;;;;5.38;4.05;;;25.10;93.10;;;;;;5053996;28;20072;-71
2023/07/08 08:59:54;;;;;;;6.13;3.70;;;25.20;93.60;;;;;;5048124;28;20048;-71
2023/07/08 09:02:29;;;;;;;4.85;4.15;;;25.30;92.50;;;;;;5055836;28;20100;-70
2023/07/08 09:05:05;;;;;;;5.55;4.15;;;25.40;93.60;;;;;;5050230;28;20513;-71
2023/07/08 09:07:38;;;;;;;5.38;3.60;;;25.60;93.90;;;;;;5043407;28;20037;-73
2023/07/08 09:10:13;;;;;;;5.32;3.83;;;25.70;94.20;;;;;;5055315;28;20173;-82
2023/07/08 09:12:39;;;;;;;4.97;3.92;;;25.80;92.30;;;;;;5054142;28;20052;-80
2023/07/08 09:15:13;;;;;;;5.53;3.90;;;25.90;92.40;;;;;;5048833;28;20033;-79
2023/07/08 09:17:39;;;;;;;7.15;4.20;;;25.80;91.70;;;;;;5049465;28;20394;-80
2023/07/08 09:20:28;;;;;;;8.30;4.28;;;25.80;92.20;;;;;;5057411;28;20036;-80
2023/07/08 09:23:21;;;;;;;48.97;15.70;;;25.90;91.80;;;;;;5037873;28;20123;-80
2023/07/08 09:25:56;;;;;;;5.38;3.95;;;25.90;91.80;;;;;;5058008;28;20968;-79
2023/07/08 09:28:22;;;;;;;7.70;4.55;;;26.00;91.90;;;;;;5056957;28;20107;-82
2023/07/08 09:30:50;;;;;;;6.10;3.90;;;26.10;91.70;;;;;;5062299;28;21312;-79
2023/07/08 09:33:16;;;;;;;5.30;4.35;;;26.20;92.80;;;;;;5051010;28;20103;-81
2023/07/08 09:35:46;;;;;;;6.25;4.22;;;26.30;91.60;;;;;;5060544;28;20037;-81
2023/07/08 09:38:20;;;;;;;5.53;4.22;;;26.40;91.50;;;;;;5034476;28;20045;-80
2023/07/08 09:40:53;;;;;;;6.88;4.47;;;26.40;91.80;;;;;;5053755;28;20039;-79
2023/07/08 09:43:19;;;;;;;7.80;4.00;;;26.50;91.30;;;;;;5059611;28;20406;-80
2023/07/08 09:45:47;;;;;;;4.18;3.40;;;26.60;92.50;;;;;;5040111;28;20037;-81
2023/07/08 09:48:27;;;;;;;4.60;3.92;;;26.70;91.90;;;;;;5046660;28;20033;-81
2023/07/08 09:50:54;;;;;;;6.32;4.22;;;26.80;92.20;;;;;;5038592;28;20045;-78
2023/07/08 09:53:22;;;;;;;5.22;3.88;;;27.00;91.30;;;;;;5061463;28;20049;-81
2023/07/08 09:55:50;;;;;;;6.57;4.35;;;27.00;90.40;;;;;;5047841;28;20546;-80
2023/07/08 09:58:29;;;;;;;5.13;3.53;;;27.00;89.90;;;;;;5054842;28;20529;-80
2023/07/08 10:00:58;;;;;;;7.15;4.47;;;27.10;86.20;;;;;;5047324;28;20522;-79
2023/07/08 10:03:30;;;;;;;5.05;4.13;;;27.10;87.50;;;;;;5057879;28;20526;-80
2023/07/08 10:06:00;;;;;;;6.57;4.25;;;27.20;89.70;;;;;;5061844;28;20564;-81
2023/07/08 10:08:42;;;;;;;5.60;3.95;;;27.30;90.50;;;;;;5051374;28;20055;-80
2023/07/08 10:11:17;;;;;;;6.47;4.18;;;27.40;90.50;;;;;;5057013;28;20080;-81
2023/07/08 10:13:50;;;;;;;4.95;3.90;;;27.50;90.00;;;;;;5040897;28;20044;-82
2023/07/08 10:16:30;;;;;;;5.50;3.67;;;27.60;87.30;;;;;;5036142;28;20053;-81
2023/07/08 10:18:58;;;;;;;5.05;4.20;;;27.60;86.60;;;;;;5061768;28;20040;-80
2023/07/08 10:21:57;;;;;;;6.43;3.90;;;27.80;87.00;;;;;;5039675;28;20585;-80
2023/07/08 10:24:37;;;;;;;5.13;4.05;;;27.80;84.70;;;;;;5053518;28;20056;-80
2023/07/08 10:27:25;;;;;;;6.00;4.40;;;27.80;88.70;;;;;;5051602;28;20089;-79
2023/07/08 10:29:51;;;;;;;6.15;3.95;;;27.90;85.60;;;;;;5042918;28;20028;-80
2023/07/08 10:32:31;;;;;;;5.25;4.00;;;27.90;82.90;;;;;;5046754;28;20561;-80
2023/07/08 10:35:03;;;;;;;4.93;3.78;;;28.00;83.70;;;;;;5034432;28;20043;-79
2023/07/08 10:37:56;;;;;;;6.70;4.15;;;28.10;82.90;;;;;;5047328;28;20051;-77
2023/07/08 10:40:53;;;;;;;6.05;3.88;;;28.20;82.10;;;;;;5049777;28;20053;-79
2023/07/08 10:43:47;;;;;;;5.57;3.85;;;28.20;81.10;;;;;;5058763;28;20667;-79
2023/07/08 10:46:35;;;;;;;5.35;3.80;;;28.20;79.90;;;;;;5034913;28;20045;-78
2023/07/08 10:49:04;;;;;;;6.50;4.03;;;28.30;84.80;;;;;;5051395;28;20048;-79
2023/07/08 10:52:14;;;;;;;6.93;4.50;;;28.50;79.90;;;;;;5058297;28;20440;-79
2023/07/08 10:55:17;;;;;;;5.28;3.67;;;28.60;81.70;;;;;;5053295;28;20047;-81
2023/07/08 10:58:04;;;;;;;5.38;4.00;;;28.70;79.40;;;;;;5049358;28;20056;-79
2023/07/08 11:01:03;;;;;;;5.95;3.97;;;28.80;76.50;;;;;;5043392;28;20495;-79
2023/07/08 11:03:58;;;;;;;7.00;4.55;;;28.80;82.60;;;;;;5048123;28;20060;-78
2023/07/08 11:06:45;;;;;;;5.15;3.85;;;29.00;79.00;;;;;;5029990;28;20044;-79
2023/07/08 11:09:17;;;;;;;5.97;4.03;;;29.10;78.40;;;;;;5037768;28;20490;-80
2023/07/08 11:11:53;;;;;;;8.35;3.88;;;29.30;79.80;;;;;;5053419;28;20041;-80
2023/07/08 11:14:26;;;;;;;5.22;3.85;;;29.40;76.80;;;;;;5040688;28;20088;-80
2023/07/08 11:17:00;;;;;;;4.60;3.83;;;29.50;71.50;;;;;;5059474;28;20490;-80
2023/07/08 11:19:34;;;;;;;5.63;3.58;;;29.60;73.90;;;;;;5060729;28;20056;-80
2023/07/08 11:22:02;;;;;;;8.25;4.20;;;29.70;71.30;;;;;;5062984;28;20074;-78
2023/07/08 11:24:34;;;;;;;7.25;4.15;;;29.70;70.00;;;;;;5050249;28;20049;-80
2023/07/08 11:27:30;;;;;;;7.28;4.47;;;29.70;69.40;;;;;;5037756;28;20040;-80
2023/07/08 11:30:05;;;;;;;4.82;3.80;;;29.80;71.40;;;;;;5046609;28;20106;-80
2023/07/08 11:32:33;;;;;;;6.50;4.15;;;29.90;72.60;;;;;;5031341;28;20048;-79
2023/07/08 11:35:03;;;;;;;7.45;4.00;;;30.00;67.10;;;;;;5052113;28;20048;-80
2023/07/08 11:37:31;;;;;;;6.15;3.97;;;30.00;68.20;;;;;;5065471;28;20063;-81
2023/07/08 11:40:17;;;;;;;7.00;4.13;;;30.10;69.70;;;;;;5033684;28;20440;-80
2023/07/08 11:42:46;;;;;;;7.22;3.42;;;30.10;66.20;;;;;;5051076;28;20121;-80
2023/07/08 11:45:37;;;;;;;6.13;4.03;;;30.20;66.80;;;;;;5040563;28;20051;-79
2023/07/08 11:48:32;;;;;;;5.00;3.90;;;30.20;63.90;;;;;;5051175;28;20139;-80
2023/07/08 11:51:03;;;;;;;6.15;3.90;;;30.20;62.10;;;;;;5058597;28;20676;-80
2023/07/08 11:53:29;;;;;;;5.47;4.03;;;30.20;64.50;;;;;;5038426;28;20048;-79
2023/07/08 11:56:19;;;;;;;5.15;4.30;;;30.30;64.90;;;;;;5046276;28;20059;-79
2023/07/08 11:58:47;;;;;;;6.68;4.05;;;30.40;64.60;;;;;;5054292;28;20674;-81
2023/07/08 12:01:13;;;;;;;5.57;4.00;;;30.50;63.90;;;;;;5043535;28;20124;-79
2023/07/08 12:03:58;;;;;;;6.07;3.97;;;30.70;65.10;;;;;;5049311;28;20123;-79
2023/07/08 12:06:27;;;;;;;6.13;4.00;;;30.70;60.90;;;;;;5058133;28;20495;-81
2023/07/08 12:09:14;;;;;;;6.28;4.18;;;30.80;62.20;;;;;;5057248;28;20427;-80
2023/07/08 12:11:44;;;;;;;6.90;4.38;;;30.90;60.90;;;;;;5054170;28;20139;-81
2023/07/08 12:14:09;;;;;;;;;;;31.00;60.10;;;;;;5042804;28;20479;-81
2023/07/08 12:16:36;;;;;;;7.18;4.50;;;31.10;59.70;;;;;;5049395;28;19928;-80
2023/07/08 12:19:05;;;;;;;9.45;4.88;;;31.20;60.80;;;;;;5045761;28;20111;-81
2023/07/08 12:21:35;;;;;;;5.90;4.43;;;31.20;59.80;;;;;;5042065;28;20045;-80
2023/07/08 12:24:10;;;;;;;7.82;4.85;;;31.30;60.80;;;;;;5038663;28;20037;-80
2023/07/08 12:26:36;;;;;;;7.22;4.88;;;31.40;59.50;;;;;;5051294;28;20053;-81
2023/07/08 12:29:02;;;;;;;5.93;4.53;;;31.50;59.60;;;;;;5052450;28;20131;-81
2023/07/08 12:31:31;;;;;;;7.65;5.05;;;31.60;59.60;;;;;;5040177;28;20538;-80
2023/07/08 12:33:58;;;;;;;9.02;5.13;;;31.60;58.10;;;;;;5059426;28;20076;-80
2023/07/08 12:36:29;;;;;;;6.35;5.07;;;31.60;55.10;;;;;;5057514;28;20052;-80
2023/07/08 12:39:00;;;;;;;6.53;4.55;;;31.60;57.60;;;;;;5061140;28;20041;-81
2023/07/08 12:41:32;;;;;;;5.82;4.60;;;31.60;57.60;;;;;;5037242;28;20049;-81
2023/07/08 12:43:59;;;;;;;7.50;4.95;;;31.70;57.40;;;;;;5053447;28;20297;-80
2023/07/08 12:46:26;;;;;;;6.10;4.60;;;31.70;56.70;;;;;;5064519;28;20044;-78
2023/07/08 12:48:52;;;;;;;6.47;4.38;;;31.60;56.20;;;;;;5033336;28;20948;-82
2023/07/08 12:51:21;;;;;;;7.07;4.95;;;31.60;56.60;;;;;;5046265;28;20078;-81
2023/07/08 12:53:47;;;;;;;6.90;5.80;;;31.70;57.50;;;;;;5057321;28;20041;-80
2023/07/08 12:56:14;;;;;;;7.30;5.22;;;31.70;56.70;;;;;;5050269;28;20060;-81
2023/07/08 12:58:46;;;;;;;7.40;5.18;;;31.90;57.70;;;;;;5059246;28;20048;-79
2023/07/08 13:01:20;;;;;;;8.00;5.28;;;31.90;56.70;;;;;;5045234;28;20119;-80